Time;durP1;ratioP1;P1;durP2;ratioP2;P2;SDS_P1;SDS_P2;PMS_P1;PMS_P2;Temp;Humidity;BMP_temperature;BMP_pressure;BME280_temperature;BME280_humidity;BME280_pressure;Samples;Min_cycle;Max_cycle;Signal;HPM_P1;HPM_P2
2024/02/05 00:01:42;;;;;;;1.60;1.20;;;11.10;98.20;;;;;;6195100;23;20523;-82
2024/02/05 00:04:14;;;;;;;1.60;1.10;;;11.10;98.20;;;;;;6207963;23;20403;-82
2024/02/05 00:06:41;;;;;;;1.60;1.10;;;11.10;98.20;;;;;;6192556;23;20762;-82
2024/02/05 00:09:15;;;;;;;1.60;1.00;;;11.10;98.20;;;;;;6213758;23;20419;-83
2024/02/05 00:11:47;;;;;;;1.60;1.00;;;11.20;98.20;;;;;;6198904;23;20876;-82
2024/02/05 00:14:16;;;;;;;1.60;1.10;;;11.20;98.20;;;;;;6218069;23;20415;-82
2024/02/05 00:16:45;;;;;;;1.60;1.00;;;11.20;98.20;;;;;;6193560;23;20579;-81
2024/02/05 00:19:28;;;;;;;1.60;1.10;;;11.20;98.20;;;;;;6207378;23;20819;-82
2024/02/05 00:21:58;;;;;;;2.43;2.23;;;11.20;98.20;;;;;;6185308;23;20547;-83
2024/02/05 00:24:34;;;;;;;1.60;1.10;;;11.20;98.20;;;;;;6219011;23;20904;-83
2024/02/05 00:27:01;;;;;;;1.60;1.03;;;11.20;98.20;;;;;;6193535;23;20455;-84
2024/02/05 00:29:28;;;;;;;1.60;1.10;;;11.20;98.20;;;;;;6213693;23;20769;-81
2024/02/05 00:31:54;;;;;;;1.60;1.00;;;11.20;98.20;;;;;;6198013;23;21011;-81
2024/02/05 00:34:21;;;;;;;1.60;1.00;;;11.20;98.20;;;;;;6213537;23;20421;-82
2024/02/05 00:36:48;;;;;;;1.60;1.03;;;11.20;98.20;;;;;;6193137;23;20483;-81
2024/02/05 00:39:15;;;;;;;1.60;1.10;;;11.20;98.20;;;;;;6211959;23;20447;-82
2024/02/05 00:41:43;;;;;;;1.57;1.03;;;11.20;98.20;;;;;;6200703;23;20471;-83
2024/02/05 00:44:23;;;;;;;1.60;1.07;;;11.20;98.20;;;;;;6218054;23;20513;-82
2024/02/05 00:46:50;;;;;;;1.60;1.10;;;11.20;98.20;;;;;;6190860;23;20452;-82
2024/02/05 00:49:17;;;;;;;1.60;1.10;;;11.20;98.20;;;;;;6209357;23;20498;-82
2024/02/05 00:51:46;;;;;;;1.60;1.10;;;11.20;98.20;;;;;;6198036;23;20452;-83
2024/02/05 00:54:16;;;;;;;1.60;1.07;;;11.20;98.20;;;;;;6217773;23;20978;-82
2024/02/05 00:56:47;;;;;;;2.33;2.13;;;11.20;98.20;;;;;;6193217;23;20448;-81
2024/02/05 00:59:14;;;;;;;1.57;1.10;;;11.20;98.20;;;;;;6218567;23;20454;-82
2024/02/05 01:01:43;;;;;;;1.60;1.20;;;11.20;98.20;;;;;;6190776;23;20458;-84
2024/02/05 01:04:14;;;;;;;1.60;1.07;;;11.20;98.20;;;;;;6216653;23;20465;-84
2024/02/05 01:06:41;;;;;;;1.60;1.00;;;11.20;98.20;;;;;;6194178;23;20458;-84
2024/02/05 01:09:09;;;;;;;1.60;1.10;;;11.20;98.20;;;;;;6205668;23;20904;-81
2024/02/05 01:11:36;;;;;;;1.60;1.10;;;11.20;98.20;;;;;;6199729;23;20482;-83
2024/02/05 01:14:05;;;;;;;1.60;1.20;;;11.20;98.20;;;;;;6205211;23;20498;-82
2024/02/05 01:16:32;;;;;;;1.60;1.10;;;11.20;98.20;;;;;;6193783;23;20450;-83
2024/02/05 01:18:59;;;;;;;1.57;1.00;;;11.20;98.20;;;;;;6213284;23;20510;-82
2024/02/05 01:21:38;;;;;;;1.60;1.00;;;11.20;98.20;;;;;;6194681;23;20503;-83
2024/02/05 01:24:06;;;;;;;1.60;1.20;;;11.20;98.20;;;;;;6204784;23;20773;-83
2024/02/05 01:26:36;;;;;;;1.60;1.10;;;11.20;98.20;;;;;;6201073;23;20455;-82
2024/02/05 01:29:06;;;;;;;1.60;1.00;;;11.20;98.20;;;;;;6203972;23;20506;-82
2024/02/05 01:31:42;;;;;;;1.60;1.00;;;11.20;98.20;;;;;;6192076;23;20455;-82
2024/02/05 01:34:09;;;;;;;1.60;1.27;;;11.20;98.20;;;;;;6215478;23;20819;-82
2024/02/05 01:36:44;;;;;;;1.60;1.10;;;11.20;98.20;;;;;;6192373;23;20452;-82
2024/02/05 01:39:12;;;;;;;1.60;1.10;;;11.20;98.20;;;;;;6214013;23;20853;-83
2024/02/05 01:41:39;;;;;;;1.60;1.20;;;11.20;98.20;;;;;;6190651;23;20474;-82
2024/02/05 01:44:07;;;;;;;1.60;1.10;;;11.10;98.20;;;;;;6206418;23;20473;-82
2024/02/05 01:46:36;;;;;;;1.60;1.10;;;11.20;98.20;;;;;;6193602;23;20539;-81
2024/02/05 01:49:07;;;;;;;1.60;1.00;;;11.20;98.20;;;;;;6214597;23;20411;-83
2024/02/05 01:51:39;;;;;;;1.60;1.10;;;11.20;98.20;;;;;;6193252;23;20527;-82
2024/02/05 01:54:06;;;;;;;1.60;1.10;;;11.20;98.20;;;;;;6206303;23;20774;-82
2024/02/05 01:56:36;;;;;;;1.60;1.10;;;11.20;98.20;;;;;;6198371;23;20513;-83
2024/02/05 01:59:23;;;;;;;1.60;1.10;;;11.20;98.20;;;;;;6213917;23;20447;-82
2024/02/05 02:01:58;;;;;;;1.60;1.10;;;11.20;98.20;;;;;;6195141;23;20763;-83
2024/02/05 02:04:26;;;;;;;1.60;1.13;;;11.20;98.20;;;;;;6210773;23;20811;-83
2024/02/05 02:06:55;;;;;;;1.60;1.10;;;11.20;98.20;;;;;;6189519;23;21342;-83
2024/02/05 02:09:25;;;;;;;1.60;1.10;;;11.20;98.20;;;;;;6217624;23;20411;-83
2024/02/05 02:11:55;;;;;;;1.60;1.10;;;11.10;98.20;;;;;;6194810;23;20482;-82
2024/02/05 02:14:27;;;;;;;1.60;1.10;;;11.10;98.20;;;;;;6219627;23;20427;-82
2024/02/05 02:16:58;;;;;;;1.60;1.10;;;11.10;98.20;;;;;;6189148;23;20455;-82
2024/02/05 02:19:32;;;;;;;1.60;1.10;;;11.10;98.20;;;;;;6220100;23;20446;-81
2024/02/05 02:22:07;;;;;;;1.60;1.20;;;11.10;98.20;;;;;;6188748;23;20448;-82
2024/02/05 02:24:39;;;;;;;1.53;1.00;;;11.10;98.20;;;;;;6211546;23;20745;-82
2024/02/05 02:27:18;;;;;;;1.60;1.07;;;11.10;98.20;;;;;;6190838;23;20459;-84
2024/02/05 02:29:48;;;;;;;9.30;8.63;;;11.10;98.20;;;;;;6214794;23;20439;-84
2024/02/05 02:32:39;;;;;;;1.57;1.10;;;11.10;98.20;;;;;;6184853;23;20998;-83
2024/02/05 02:35:30;;;;;;;1.60;1.20;;;11.10;98.20;;;;;;6220774;23;20404;-83
2024/02/05 02:38:11;;;;;;;1.60;1.10;;;11.10;98.20;;;;;;6179611;23;20475;-83
2024/02/05 02:40:41;;;;;;;1.60;1.10;;;11.10;98.20;;;;;;6230039;23;20407;-83
2024/02/05 02:43:09;;;;;;;1.60;1.07;;;11.10;98.20;;;;;;6178697;23;20825;-83
2024/02/05 02:45:37;;;;;;;1.60;1.10;;;11.10;98.20;;;;;;6220986;23;20679;-83
2024/02/05 02:48:04;;;;;;;1.60;1.10;;;11.10;98.20;;;;;;6178284;23;20443;-83
2024/02/05 02:50:33;;;;;;;1.60;1.10;;;11.10;98.20;;;;;;6220839;23;20418;-84
2024/02/05 02:53:00;;;;;;;1.50;1.00;;;11.10;98.20;;;;;;6173839;23;20470;-81
2024/02/05 02:55:31;;;;;;;1.60;1.00;;;11.10;98.20;;;;;;6218700;23;20421;-83
2024/02/05 02:58:00;;;;;;;1.60;1.10;;;11.10;98.20;;;;;;6179751;23;20452;-82
2024/02/05 03:00:32;;;;;;;1.60;1.00;;;11.10;98.20;;;;;;6219696;23;20455;-84
2024/02/05 03:02:59;;;;;;;7.83;5.33;;;11.10;98.20;;;;;;6178740;23;20444;-83
2024/02/05 03:05:26;;;;;;;1.60;1.10;;;11.10;98.20;;;;;;6222933;23;20497;-82
2024/02/05 03:07:59;;;;;;;1.53;1.10;;;11.10;98.20;;;;;;6180084;23;20460;-84
2024/02/05 03:10:26;;;;;;;1.60;1.10;;;11.10;98.20;;;;;;6222995;23;20399;-83
2024/02/05 03:13:00;;;;;;;1.60;1.30;;;11.10;98.20;;;;;;6182279;23;20447;-84
2024/02/05 03:15:27;;;;;;;1.60;1.10;;;11.10;98.20;;;;;;6222076;23;20404;-83
2024/02/05 03:17:58;;;;;;;1.60;1.10;;;11.10;98.20;;;;;;6182216;23;20474;-81
2024/02/05 03:20:35;;;;;;;1.60;1.10;;;11.10;98.20;;;;;;6222749;23;20427;-82
2024/02/05 03:23:09;;;;;;;1.70;1.40;;;11.10;98.20;;;;;;6187709;23;20519;-81
2024/02/05 03:25:39;;;;;;;1.60;1.10;;;11.10;98.20;;;;;;6238466;23;20415;-82
2024/02/05 03:28:08;;;;;;;2.47;2.27;;;11.10;98.20;;;;;;6179826;23;20455;-82
2024/02/05 03:30:36;;;;;;;1.60;1.10;;;11.10;98.20;;;;;;6220957;23;20418;-83
2024/02/05 03:33:06;;;;;;;1.60;1.10;;;11.10;98.20;;;;;;6179184;23;20475;-84
2024/02/05 03:35:39;;;;;;;1.60;1.13;;;11.10;98.20;;;;;;6222234;23;20406;-81
2024/02/05 03:38:08;;;;;;;1.53;1.00;;;11.10;98.20;;;;;;6178127;23;20773;-80
2024/02/05 03:40:37;;;;;;;1.60;1.10;;;11.10;98.20;;;;;;6219993;23;20473;-82
2024/02/05 03:43:05;;;;;;;1.57;1.00;;;11.10;98.20;;;;;;6176539;23;20498;-83
2024/02/05 03:45:33;;;;;;;1.70;1.40;;;11.10;98.20;;;;;;6232368;23;20429;-82
2024/02/05 03:48:01;;;;;;;1.60;1.20;;;11.00;98.20;;;;;;6179023;23;20551;-82
2024/02/05 03:50:28;;;;;;;1.60;1.10;;;11.00;98.20;;;;;;6220527;23;20498;-82
2024/02/05 03:52:55;;;;;;;1.60;1.10;;;11.00;98.20;;;;;;6178314;23;20988;-83
2024/02/05 03:55:22;;;;;;;1.60;1.10;;;11.00;98.20;;;;;;6221042;23;20423;-82
2024/02/05 03:58:02;;;;;;;1.57;1.10;;;11.00;98.20;;;;;;6179241;23;20452;-81
2024/02/05 04:00:30;;;;;;;1.60;1.17;;;11.00;98.20;;;;;;6220740;23;20426;-83
2024/02/05 04:03:04;;;;;;;1.60;1.10;;;11.00;98.20;;;;;;6177671;23;20948;-81
2024/02/05 04:05:33;;;;;;;1.60;1.10;;;11.00;98.20;;;;;;6220949;23;20407;-79
2024/02/05 04:08:02;;;;;;;1.60;1.20;;;11.00;98.20;;;;;;6177120;23;20475;-82
2024/02/05 04:10:29;;;;;;;1.60;1.10;;;11.00;98.20;;;;;;6229926;23;20421;-82
2024/02/05 04:12:56;;;;;;;1.90;1.70;;;11.00;98.20;;;;;;6180283;23;20448;-82
2024/02/05 04:15:25;;;;;;;1.60;1.10;;;11.00;98.20;;;;;;6229728;23;20502;-81
2024/02/05 04:17:53;;;;;;;1.57;1.00;;;11.00;98.20;;;;;;6177136;23;20463;-82
2024/02/05 04:20:21;;;;;;;1.60;1.10;;;10.90;98.20;;;;;;6228707;23;20443;-81
2024/02/05 04:22:51;;;;;;;1.57;1.00;;;10.90;98.20;;;;;;6177246;23;20451;-82
2024/02/05 04:25:18;;;;;;;1.60;1.07;;;10.90;98.20;;;;;;6229505;23;20415;-82
2024/02/05 04:27:45;;;;;;;1.60;1.10;;;10.90;98.20;;;;;;6176890;23;20761;-84
2024/02/05 04:30:16;;;;;;;1.60;1.20;;;10.90;98.20;;;;;;6219798;23;20506;-82
2024/02/05 04:32:42;;;;;;;1.60;1.10;;;10.90;98.20;;;;;;6176769;23;21011;-82
2024/02/05 04:35:12;;;;;;;1.60;1.10;;;10.90;98.20;;;;;;6228316;23;20464;-81
2024/02/05 04:37:42;;;;;;;1.60;1.10;;;10.90;98.20;;;;;;6182161;23;20487;-81
2024/02/05 04:40:20;;;;;;;1.57;1.03;;;10.90;98.20;;;;;;6219238;23;20994;-82
2024/02/05 04:42:49;;;;;;;1.60;1.20;;;10.90;98.20;;;;;;6180161;23;20479;-84
2024/02/05 04:45:17;;;;;;;1.57;1.10;;;10.90;98.20;;;;;;6216796;23;20419;-82
2024/02/05 04:47:44;;;;;;;1.60;1.10;;;10.90;98.20;;;;;;6177337;23;20691;-82
2024/02/05 04:50:29;;;;;;;1.60;1.10;;;10.90;98.20;;;;;;6219180;23;20415;-83
2024/02/05 04:53:02;;;;;;;1.60;1.10;;;10.90;98.20;;;;;;6175283;23;20640;-82
2024/02/05 04:55:32;;;;;;;1.60;1.20;;;10.90;98.20;;;;;;6231362;23;20579;-83
2024/02/05 04:58:05;;;;;;;1.60;1.20;;;10.80;98.20;;;;;;6179345;23;20980;-83
2024/02/05 05:03:59;;;;;;;1.60;1.10;;;10.80;98.20;;;;;;6180375;23;20423;-82
2024/02/05 05:06:31;;;;;;;1.57;1.10;;;10.80;98.20;;;;;;6195414;23;20466;-82
2024/02/05 05:08:59;;;;;;;1.60;1.20;;;10.80;98.20;;;;;;6212501;23;20426;-82
2024/02/05 05:11:29;;;;;;;1.60;1.10;;;10.80;98.20;;;;;;6202839;23;20984;-82
2024/02/05 05:13:58;;;;;;;1.60;1.30;;;10.80;98.20;;;;;;6203433;23;20439;-83
2024/02/05 05:16:33;;;;;;;1.60;1.10;;;10.80;98.20;;;;;;6203082;23;20524;-83
2024/02/05 05:19:01;;;;;;;1.60;1.10;;;10.80;98.20;;;;;;6212659;23;20414;-83
2024/02/05 05:21:35;;;;;;;1.60;1.10;;;10.80;98.20;;;;;;6202818;23;20471;-82
2024/02/05 05:24:08;;;;;;;2.90;2.70;;;10.80;98.20;;;;;;6205373;23;20407;-83
2024/02/05 05:26:37;;;;;;;1.60;1.10;;;10.80;98.20;;;;;;6200809;23;20964;-81
2024/02/05 05:29:06;;;;;;;1.60;1.10;;;10.80;98.20;;;;;;6202197;23;20443;-82
2024/02/05 05:31:35;;;;;;;1.60;1.10;;;10.80;98.20;;;;;;6199542;23;20570;-82
2024/02/05 05:34:06;;;;;;;1.53;1.10;;;10.80;98.20;;;;;;6205277;23;20415;-83
2024/02/05 05:36:39;;;;;;;1.60;1.20;;;10.80;98.20;;;;;;6203560;23;20754;-82
2024/02/05 05:39:17;;;;;;;1.60;1.20;;;10.80;98.20;;;;;;6216559;23;20415;-81
2024/02/05 05:42:12;;;;;;;1.60;1.10;;;10.80;98.20;;;;;;6198437;23;21067;-81
2024/02/05 05:44:39;;;;;;;1.57;1.10;;;10.80;98.20;;;;;;6224930;22;20427;-84
2024/02/05 05:47:09;;;;;;;1.60;1.10;;;10.80;98.20;;;;;;6214663;23;20518;-85
2024/02/05 05:49:36;;;;;;;1.60;1.10;;;10.80;98.20;;;;;;6253108;23;20426;-85
2024/02/05 05:52:11;;;;;;;1.60;1.00;;;10.80;98.20;;;;;;6221945;23;20546;-86
2024/02/05 05:54:39;;;;;;;1.70;1.50;;;10.70;98.20;;;;;;6253278;22;20964;-85
2024/02/05 05:57:16;;;;;;;1.60;1.20;;;10.70;98.20;;;;;;6223553;23;20514;-84
2024/02/05 05:59:52;;;;;;;1.60;1.17;;;10.70;98.20;;;;;;6256510;23;20529;-84
2024/02/05 06:02:29;;;;;;;1.60;1.00;;;10.70;98.20;;;;;;6212561;23;20450;-84
2024/02/05 06:04:56;;;;;;;1.60;1.10;;;10.70;98.20;;;;;;6257459;22;20846;-84
2024/02/05 06:07:23;;;;;;;1.60;1.10;;;10.70;98.20;;;;;;6219218;23;20509;-84
2024/02/05 06:09:52;;;;;;;1.60;1.10;;;10.70;98.20;;;;;;6257792;23;20441;-84
2024/02/05 06:12:19;;;;;;;1.60;1.10;;;10.70;98.20;;;;;;6216658;23;20442;-83
2024/02/05 06:14:46;;;;;;;1.60;1.10;;;10.70;98.20;;;;;;6253854;22;20442;-84
2024/02/05 06:17:14;;;;;;;1.57;1.20;;;10.70;98.20;;;;;;6221904;23;20443;-85
2024/02/05 06:19:44;;;;;;;1.60;1.10;;;10.70;98.20;;;;;;6257703;23;20438;-88
2024/02/05 06:25:36;;;;;;;1.60;1.20;;;10.70;98.20;;;;;;6254900;22;20736;-86
2024/02/05 06:34:17;;;;;;;1.60;1.10;;;10.70;98.20;;;;;;6245086;23;20493;-84
2024/02/05 06:36:47;;;;;;;1.60;1.10;;;10.70;98.20;;;;;;6231886;22;20458;-86
2024/02/05 06:39:14;;;;;;;1.60;1.10;;;10.60;98.20;;;;;;6242900;23;20421;-85
2024/02/05 06:41:46;;;;;;;1.60;1.10;;;10.60;98.20;;;;;;6227275;23;20975;-85
2024/02/05 06:44:13;;;;;;;1.53;1.10;;;10.60;98.20;;;;;;6240898;23;20406;-86
2024/02/05 06:47:04;;;;;;;1.60;1.10;;;10.60;98.20;;;;;;6230533;22;20461;-84
2024/02/05 06:49:31;;;;;;;1.60;1.07;;;10.60;98.20;;;;;;6242153;23;20513;-83
2024/02/05 06:52:01;;;;;;;1.60;1.20;;;10.60;98.20;;;;;;6222629;23;20458;-84
2024/02/05 06:54:29;;;;;;;1.60;1.10;;;10.60;98.20;;;;;;6252126;22;20437;-84
2024/02/05 06:56:57;;;;;;;1.60;1.10;;;10.60;98.20;;;;;;6228936;23;20446;-84
2024/02/05 06:59:31;;;;;;;1.60;1.20;;;10.60;98.20;;;;;;6242966;23;20438;-83
2024/02/05 07:01:59;;;;;;;1.53;1.10;;;10.60;98.20;;;;;;6226920;23;20446;-84
2024/02/05 07:04:30;;;;;;;1.60;1.10;;;10.60;98.20;;;;;;6230945;22;20429;-82
2024/02/05 07:06:57;;;;;;;1.57;1.10;;;10.50;98.20;;;;;;6226192;23;20481;-83
2024/02/05 07:09:28;;;;;;;1.60;1.20;;;10.50;98.20;;;;;;6240054;23;20425;-85
2024/02/05 07:11:57;;;;;;;1.60;1.10;;;10.50;98.20;;;;;;6217411;23;20444;-86
2024/02/05 07:16:51;;;;;;;1.60;1.10;;;10.50;98.20;;;;;;6192904;22;20758;-83
2024/02/05 07:19:21;;;;;;;1.57;1.10;;;10.50;98.20;;;;;;6218608;23;20176;-85
2024/02/05 07:24:37;;;;;;;1.60;1.20;;;10.50;98.20;;;;;;6198100;23;20939;-85
2024/02/05 07:27:13;;;;;;;1.60;1.20;;;10.50;98.20;;;;;;6191681;23;20450;-83
2024/02/05 07:30:09;;;;;;;1.60;1.10;;;10.40;98.20;;;;;;6226753;23;20430;-84
2024/02/05 07:32:39;;;;;;;1.60;1.20;;;10.40;98.20;;;;;;6186671;23;20448;-83
2024/02/05 07:35:25;;;;;;;1.60;1.10;;;10.40;98.20;;;;;;6236401;22;20470;-85
2024/02/05 07:37:55;;;;;;;1.60;1.10;;;10.40;98.20;;;;;;6212678;23;20482;-85
2024/02/05 07:40:22;;;;;;;1.60;1.07;;;10.40;98.20;;;;;;6249920;23;20432;-84
2024/02/05 07:42:50;;;;;;;1.60;1.20;;;10.40;98.20;;;;;;6202336;23;20485;-83
2024/02/05 07:45:18;;;;;;;1.60;1.10;;;10.40;98.20;;;;;;6242682;22;20466;-82
2024/02/05 07:47:45;;;;;;;1.57;1.03;;;10.40;98.20;;;;;;6201709;23;20450;-82
2024/02/05 07:50:12;;;;;;;1.60;1.10;;;10.40;98.20;;;;;;6244898;23;20406;-82
2024/02/05 07:53:00;;;;;;;1.60;1.10;;;10.40;98.20;;;;;;6197968;23;20458;-82
2024/02/05 07:55:27;;;;;;;1.57;1.10;;;10.40;98.20;;;;;;6251295;22;20919;-79
2024/02/05 07:57:55;;;;;;;1.60;1.10;;;10.40;98.20;;;;;;6196246;23;20858;-80
2024/02/05 08:00:22;;;;;;;1.60;1.10;;;10.40;98.20;;;;;;6249111;23;20599;-80
2024/02/05 08:02:49;;;;;;;1.60;1.20;;;10.50;98.20;;;;;;6196411;23;20451;-80
2024/02/05 08:05:17;;;;;;;1.57;1.10;;;10.50;98.20;;;;;;6239057;22;20438;-80
2024/02/05 08:07:44;;;;;;;3.00;2.80;;;10.50;98.20;;;;;;6195418;23;20451;-80
2024/02/05 08:10:12;;;;;;;1.50;1.10;;;10.50;98.20;;;;;;6249488;23;20417;-80
2024/02/05 08:12:40;;;;;;;1.60;1.10;;;10.50;98.20;;;;;;6200455;23;20450;-80
2024/02/05 08:15:09;;;;;;;1.50;1.10;;;10.50;98.20;;;;;;6247851;22;20757;-80
2024/02/05 08:17:36;;;;;;;1.60;1.10;;;10.50;98.20;;;;;;6200490;23;20455;-80
2024/02/05 08:20:04;;;;;;;1.83;1.63;;;10.50;98.20;;;;;;6236616;23;20938;-80
2024/02/05 08:22:37;;;;;;;1.60;1.10;;;10.60;98.20;;;;;;6201724;23;20457;-81
2024/02/05 08:25:04;;;;;;;1.60;1.10;;;10.60;98.20;;;;;;6248523;22;20426;-80
2024/02/05 08:27:31;;;;;;;1.53;1.10;;;10.60;98.20;;;;;;6200979;23;20485;-81
2024/02/05 08:29:58;;;;;;;1.60;1.30;;;10.60;98.20;;;;;;6236188;23;20422;-80
2024/02/05 08:32:27;;;;;;;1.60;1.10;;;10.60;98.20;;;;;;6203773;23;20447;-80
2024/02/05 08:34:55;;;;;;;1.57;1.07;;;10.60;98.20;;;;;;6234653;22;20958;-80
2024/02/05 08:37:22;;;;;;;3.90;3.53;;;10.60;98.20;;;;;;6199407;23;20861;-79
2024/02/05 08:39:50;;;;;;;1.57;1.10;;;10.70;98.20;;;;;;6246260;23;20636;-80
2024/02/05 08:42:18;;;;;;;1.57;1.07;;;10.70;98.20;;;;;;6208786;23;20530;-80
2024/02/05 08:44:46;;;;;;;1.60;1.10;;;10.70;98.20;;;;;;6243021;22;20430;-80
2024/02/05 08:47:14;;;;;;;1.57;1.00;;;10.70;98.20;;;;;;6207717;23;20458;-81
2024/02/05 08:49:43;;;;;;;1.60;1.10;;;10.70;98.20;;;;;;6232991;23;20872;-79
2024/02/05 08:52:10;;;;;;;1.63;1.30;;;10.80;98.20;;;;;;6207467;23;20513;-80
2024/02/05 08:54:37;;;;;;;1.57;1.10;;;10.80;98.20;;;;;;6231540;22;20414;-81
2024/02/05 08:57:05;;;;;;;1.60;1.20;;;10.90;98.20;;;;;;6209511;23;20451;-80
2024/02/05 08:59:34;;;;;;;1.57;1.10;;;10.90;98.20;;;;;;6230302;23;20771;-83
2024/02/05 09:02:01;;;;;;;1.57;1.10;;;10.90;98.20;;;;;;6207048;23;20470;-78
2024/02/05 09:04:28;;;;;;;1.53;1.07;;;11.00;98.20;;;;;;6239914;22;20485;-79
2024/02/05 09:06:57;;;;;;;1.60;1.23;;;11.00;98.20;;;;;;6208668;23;20447;-79
2024/02/05 09:09:25;;;;;;;1.60;1.17;;;11.10;98.20;;;;;;6237005;23;20421;-80
2024/02/05 09:11:52;;;;;;;1.60;1.20;;;11.10;98.20;;;;;;6213650;23;21515;-79
2024/02/05 09:14:20;;;;;;;1.60;1.10;;;11.10;98.20;;;;;;6227272;23;20422;-79
2024/02/05 09:16:47;;;;;;;1.60;1.10;;;11.20;98.20;;;;;;6215937;23;20454;-79
2024/02/05 09:19:15;;;;;;;1.50;1.00;;;11.30;98.20;;;;;;6225061;23;20983;-80
2024/02/05 09:21:51;;;;;;;1.60;1.10;;;11.40;98.20;;;;;;6214252;23;20458;-80
2024/02/05 09:24:20;;;;;;;1.60;1.10;;;11.40;98.20;;;;;;6236794;23;20413;-79
2024/02/05 09:26:47;;;;;;;1.60;1.10;;;11.50;98.20;;;;;;6215466;22;20454;-79
2024/02/05 09:29:14;;;;;;;1.60;1.00;;;11.50;98.20;;;;;;6235736;23;20452;-79
2024/02/05 09:32:15;;;;;;;1.60;1.10;;;11.60;98.20;;;;;;6238418;23;20484;-80
2024/02/05 09:34:42;;;;;;;1.57;1.10;;;11.70;98.20;;;;;;6219827;22;20434;-79
2024/02/05 09:37:10;;;;;;;1.57;1.00;;;11.80;98.20;;;;;;6205645;23;20446;-78
2024/02/05 09:39:39;;;;;;;1.60;1.10;;;11.90;98.20;;;;;;6239615;23;20461;-80
2024/02/05 09:42:11;;;;;;;1.60;1.00;;;12.00;98.20;;;;;;6211586;23;20446;-79
2024/02/05 09:44:40;;;;;;;1.60;1.10;;;12.10;98.20;;;;;;6228956;22;20436;-79
2024/02/05 09:47:08;;;;;;;1.60;1.10;;;12.10;98.20;;;;;;6205973;23;20466;-79
2024/02/05 09:49:37;;;;;;;1.93;1.73;;;12.10;98.20;;;;;;6229025;23;20505;-79
2024/02/05 09:52:07;;;;;;;1.60;1.10;;;12.20;98.20;;;;;;6204350;23;21053;-79
2024/02/05 09:54:39;;;;;;;1.60;1.00;;;12.20;98.20;;;;;;6229705;22;20820;-80
2024/02/05 09:57:09;;;;;;;1.60;1.00;;;12.30;98.20;;;;;;6207419;23;21014;-77
2024/02/05 09:59:37;;;;;;;1.60;1.27;;;12.40;98.20;;;;;;6229528;23;20513;-79
2024/02/05 10:02:07;;;;;;;1.57;1.00;;;12.50;98.20;;;;;;6211685;23;20446;-79
2024/02/05 10:04:40;;;;;;;1.53;1.00;;;12.50;98.20;;;;;;6230416;22;20764;-81
2024/02/05 10:07:09;;;;;;;1.60;1.10;;;12.60;98.20;;;;;;6207736;23;20487;-78
2024/02/05 10:09:38;;;;;;;1.50;1.00;;;12.60;98.20;;;;;;6230959;23;20796;-80
2024/02/05 10:12:09;;;;;;;1.53;1.00;;;12.70;98.20;;;;;;6206896;23;20474;-79
2024/02/05 10:14:37;;;;;;;4.03;3.53;;;12.80;98.20;;;;;;6232053;22;20485;-77
2024/02/05 10:17:04;;;;;;;1.60;1.00;;;12.90;98.20;;;;;;6208612;23;20490;-77
2024/02/05 10:19:33;;;;;;;1.60;1.10;;;12.90;98.20;;;;;;6231683;23;20414;-79
2024/02/05 10:22:01;;;;;;;1.60;1.00;;;13.00;98.20;;;;;;6216805;23;20454;-79
2024/02/05 10:24:28;;;;;;;1.60;1.07;;;13.10;98.20;;;;;;6242604;22;20418;-79
2024/02/05 10:26:55;;;;;;;1.60;1.00;;;13.00;98.20;;;;;;6212498;23;20915;-79
2024/02/05 10:29:25;;;;;;;1.60;1.10;;;12.90;98.20;;;;;;6231694;23;20493;-79
2024/02/05 10:31:53;;;;;;;1.60;1.10;;;12.90;98.20;;;;;;6211852;23;20850;-79
2024/02/05 10:34:23;;;;;;;1.70;1.43;;;12.90;98.20;;;;;;6241396;23;20461;-80
2024/02/05 10:36:50;;;;;;;1.60;1.00;;;13.00;98.20;;;;;;6218761;23;20538;-79
2024/02/05 10:39:22;;;;;;;1.60;1.10;;;13.00;98.20;;;;;;6240462;23;20410;-79
2024/02/05 10:41:50;;;;;;;1.60;1.10;;;13.10;98.20;;;;;;6210155;23;20459;-80
2024/02/05 10:44:18;;;;;;;1.60;1.10;;;13.10;98.20;;;;;;6229058;23;20693;-80
2024/02/05 10:46:49;;;;;;;1.60;1.10;;;13.00;98.20;;;;;;6219799;22;21082;-82
2024/02/05 10:49:17;;;;;;;1.60;1.00;;;13.00;98.20;;;;;;6227407;23;20402;-79
2024/02/05 10:51:45;;;;;;;1.60;0.90;;;12.90;98.20;;;;;;6217918;23;20450;-79
2024/02/05 10:54:13;;;;;;;1.73;1.40;;;13.00;98.20;;;;;;6227007;23;20497;-80
2024/02/05 10:56:41;;;;;;;1.60;1.00;;;13.10;98.20;;;;;;6213088;22;20461;-82
2024/02/05 10:59:08;;;;;;;1.60;1.10;;;13.20;98.20;;;;;;6236110;23;20449;-83
2024/02/05 11:01:43;;;;;;;1.60;1.00;;;13.30;98.20;;;;;;6213562;23;20539;-82
2024/02/05 11:04:16;;;;;;;1.60;1.10;;;13.40;98.20;;;;;;6236925;23;20868;-82
2024/02/05 11:06:48;;;;;;;1.60;0.93;;;13.50;98.20;;;;;;6218420;22;20508;-79
2024/02/05 11:09:16;;;;;;;1.90;1.40;;;13.50;98.20;;;;;;6229123;23;20489;-79
2024/02/05 11:11:46;;;;;;;1.60;1.00;;;13.50;98.20;;;;;;6218405;23;20533;-80
2024/02/05 11:14:17;;;;;;;1.60;1.10;;;13.50;98.20;;;;;;6228122;23;20415;-80
2024/02/05 11:16:46;;;;;;;6.53;2.73;;;13.50;98.20;;;;;;6213091;22;21018;-80
2024/02/05 11:19:17;;;;;;;1.60;1.00;;;13.60;98.20;;;;;;6227230;23;20417;-80
2024/02/05 11:21:48;;;;;;;1.60;1.00;;;13.60;98.20;;;;;;6212445;23;20447;-80
2024/02/05 11:24:16;;;;;;;1.60;1.00;;;13.60;98.20;;;;;;6231031;23;20418;-79
2024/02/05 11:26:44;;;;;;;1.60;1.00;;;13.50;98.20;;;;;;6211490;22;20474;-79
2024/02/05 11:29:21;;;;;;;1.60;1.00;;;13.30;98.20;;;;;;6226395;23;20421;-80
2024/02/05 11:31:48;;;;;;;1.60;1.10;;;13.30;98.20;;;;;;6210655;23;20449;-80
2024/02/05 11:34:27;;;;;;;1.60;0.90;;;13.30;98.20;;;;;;6229248;23;20794;-80
2024/02/05 11:36:56;;;;;;;1.60;1.10;;;13.20;98.20;;;;;;6217193;23;20455;-82
2024/02/05 11:39:23;;;;;;;1.60;1.00;;;13.10;98.20;;;;;;6244744;23;20418;-81
2024/02/05 11:41:50;;;;;;;1.60;1.10;;;12.90;98.20;;;;;;6216005;23;20525;-81
2024/02/05 11:44:18;;;;;;;3.30;2.33;;;12.90;98.20;;;;;;6239057;23;20414;-81
2024/02/05 11:46:45;;;;;;;1.60;1.00;;;12.80;98.20;;;;;;6212551;22;20450;-81
2024/02/05 11:49:12;;;;;;;1.60;1.10;;;12.80;98.20;;;;;;6237280;23;20482;-81
2024/02/05 11:51:41;;;;;;;1.60;1.10;;;12.80;98.20;;;;;;6207403;23;20447;-81
2024/02/05 11:54:08;;;;;;;1.60;0.97;;;12.70;98.20;;;;;;6221453;23;20487;-81
2024/02/05 11:56:35;;;;;;;1.60;1.10;;;12.70;98.20;;;;;;6214321;22;20461;-82
2024/02/05 11:59:08;;;;;;;1.60;1.00;;;12.70;98.20;;;;;;6225263;23;20970;-80
2024/02/05 12:01:36;;;;;;;1.60;1.00;;;12.70;98.20;;;;;;6215963;23;20450;-81
2024/02/05 12:04:04;;;;;;;1.53;1.00;;;12.80;98.20;;;;;;6226739;23;20456;-80
2024/02/05 12:06:32;;;;;;;1.60;1.07;;;12.90;98.20;;;;;;6216866;22;20812;-81
2024/02/05 12:09:05;;;;;;;1.60;1.00;;;12.90;98.20;;;;;;6233300;23;20453;-81
2024/02/05 12:11:32;;;;;;;1.60;1.10;;;12.90;98.20;;;;;;6220209;23;20446;-80
2024/02/05 12:16:51;;;;;;;1.60;1.00;;;12.80;98.20;;;;;;6207445;22;20439;-81
2024/02/05 12:19:22;;;;;;;1.60;1.10;;;12.70;98.20;;;;;;6237724;23;20414;-81
2024/02/05 12:21:49;;;;;;;1.57;1.00;;;12.60;98.20;;;;;;6212461;23;20519;-81
2024/02/05 12:24:18;;;;;;;1.57;1.00;;;12.60;98.20;;;;;;6232384;23;20414;-82
2024/02/05 12:26:46;;;;;;;1.60;1.10;;;12.60;98.20;;;;;;6212469;22;20479;-80
2024/02/05 12:29:23;;;;;;;1.60;1.00;;;12.50;98.20;;;;;;6238000;23;20445;-79
2024/02/05 12:31:51;;;;;;;1.60;1.10;;;12.50;98.20;;;;;;6215160;23;20443;-83
2024/02/05 12:34:19;;;;;;;3.80;2.00;;;12.50;98.20;;;;;;6238856;23;20422;-80
2024/02/05 12:36:46;;;;;;;1.53;1.00;;;12.60;98.20;;;;;;6218779;22;20457;-80
2024/02/05 12:39:14;;;;;;;1.60;1.10;;;12.70;98.20;;;;;;6229212;23;20794;-80
2024/02/05 12:41:43;;;;;;;4.47;3.20;;;12.80;98.20;;;;;;6212107;23;20443;-80
2024/02/05 12:44:10;;;;;;;1.60;1.10;;;12.90;98.20;;;;;;6226656;23;20418;-81
2024/02/05 12:46:38;;;;;;;1.60;1.10;;;13.00;98.20;;;;;;6213655;22;20455;-80
2024/02/05 12:49:05;;;;;;;1.60;1.10;;;13.00;98.20;;;;;;6224382;23;20422;-81
2024/02/05 12:51:32;;;;;;;1.80;1.30;;;13.00;98.20;;;;;;6213600;23;20451;-81
2024/02/05 12:53:59;;;;;;;1.57;1.00;;;13.00;98.20;;;;;;6225749;23;20413;-81
2024/02/05 12:56:26;;;;;;;1.80;1.63;;;12.90;98.20;;;;;;6216053;22;20474;-81
2024/02/05 12:58:55;;;;;;;1.60;1.10;;;12.90;98.20;;;;;;6221744;23;20480;-81
2024/02/05 13:01:25;;;;;;;1.60;1.00;;;12.90;98.20;;;;;;6213384;23;20470;-79
2024/02/05 13:03:52;;;;;;;1.57;1.03;;;12.90;98.20;;;;;;6221149;23;20420;-81
2024/02/05 13:06:23;;;;;;;1.60;1.10;;;12.80;98.20;;;;;;6215494;22;20986;-81
2024/02/05 13:08:50;;;;;;;1.50;1.00;;;12.80;98.20;;;;;;6219008;23;20406;-81
2024/02/05 13:11:18;;;;;;;1.53;1.00;;;12.70;98.20;;;;;;6214685;23;20484;-81
2024/02/05 13:13:46;;;;;;;1.60;1.20;;;12.60;98.20;;;;;;6227761;23;20444;-82
2024/02/05 13:16:15;;;;;;;1.57;1.00;;;12.60;98.20;;;;;;6217912;22;21248;-81
2024/02/05 13:18:42;;;;;;;1.53;1.00;;;12.60;98.20;;;;;;6227074;23;20804;-82
2024/02/05 13:21:12;;;;;;;1.53;1.00;;;12.70;98.20;;;;;;6229236;23;20485;-82
2024/02/05 13:23:39;;;;;;;1.53;1.00;;;12.80;98.20;;;;;;6234833;23;20434;-81